• Join FlightAware (Why Join?)
  • Login
  • US Flag 
 
09:05AM EST


 

Airport Tracker/Info


-or-


 

Live Flight TrackerFlight Track Log ✈ TRS398 ✈ 28-May-2013 ✈ KMCO - KMKE

Flight Track Log - Related Links

Times and Time Zones

All times are in EDT time to prevent confusion due to time zone crossing. See the TRS398 flight status page for this flight to view local times or setup timezone preferences in your user account.

Time Position Orientation Groundspeed Altitude Reporting Facility
EDT Latitude Longitude Course Direction KTS MPH feet Rate Location/Type
02:53PM 28.4000 -81.3000 210° Southwest 180 207 500  Level Orlando TRACON
02:54PM 28.3500 -81.3333 210° Southwest 230 265 2,600 1,620 Climbing Orlando TRACON
02:55PM 28.3167 -81.4000 240° Southwest 287 330 4,300 1,800 Climbing Orlando TRACON
02:56PM 28.3667 -81.4333 330° Northwest 272 313 6,400 1,800 Climbing Orlando TRACON
02:58PM 28.5219 -81.4772 346° North 310 357 9,700 1,560 Climbing Jacksonville Center
02:59PM 28.6078 -81.4997 347° North 310 357 11,200 1,500 Climbing Jacksonville Center
03:00PM 28.6956 -81.5197 349° North 316 364 12,800 1,620 Climbing Jacksonville Center
03:01PM 28.7919 -81.5422 348° North 327 376 14,500 1,680 Climbing Jacksonville Center
03:02PM 28.8881 -81.5669 347° North 338 389 16,200 1,620 Climbing Jacksonville Center
03:03PM 28.9886 -81.5894 349° North 350 403 17,800 1,620 Climbing Jacksonville Center
03:04PM 29.0889 -81.6167 347° North 355 409 19,500 1,740 Climbing Jacksonville Center
03:05PM 29.1914 -81.6389 349° North 367 422 21,300 1,680 Climbing Jacksonville Center
03:06PM 29.3067 -81.6708 346° North 377 434 22,900 1,620 Climbing Jacksonville Center
03:07PM 29.4153 -81.6981 348° North 382 440 24,600 1,440 Climbing Jacksonville Center
03:08PM 29.5283 -81.7253 348° North 395 455 25,800 1,320 Climbing Jacksonville Center
03:09PM 29.6414 -81.7550 347° North 406 467 27,300 1,200 Climbing Jacksonville Center
03:10PM 29.7586 -81.7800 350° North 413 475 28,300 1,020 Climbing Jacksonville Center
03:11PM 29.8756 -81.8100 347° North 418 481 29,400 1,020 Climbing Jacksonville Center
03:12PM 29.9950 -81.8397 348° North 429 494 30,400 900 Climbing Jacksonville Center
03:13PM 30.1183 -81.8672 349° North 436 502 31,200 840 Climbing Jacksonville Center
03:14PM 30.2417 -81.8900 351° North 441 507 32,100 840 Climbing Jacksonville Center
03:15PM 30.3611 -81.9369 341° North 446 513 32,900 420 Climbing Jacksonville Center
03:16PM 30.4806 -81.9864 340° North 466 536 33,000  Climbing Jacksonville Center
03:17PM 30.5914 -82.0383 338° Northwest 463 533 33,000  Level Jacksonville Center
03:18PM 30.7044 -82.0881 339° North 451 519 33,000  Level Jacksonville Center
03:19PM 30.8239 -82.1403 339° North 451 519 33,000  Level Jacksonville Center
03:20PM 30.9369 -82.1903 339° North 451 519 33,000  Level Jacksonville Center
03:21PM 31.0542 -82.2378 341° North 445 512 33,000  Level Jacksonville Center
03:22PM 31.1692 -82.2906 339° North 445 512 33,000  Level Jacksonville Center
03:23PM 31.2864 -82.3408 340° North 445 512 33,000  Level Jacksonville Center
03:24PM 31.4014 -82.3864 341° North 445 512 33,000  Level Jacksonville Center
03:25PM 31.5164 -82.4392 339° North 440 506 33,000  Level Jacksonville Center
03:27PM 31.7711 -82.5511 340° North 465 535 33,000  Level Atlanta Center
03:28PM 31.8864 -82.6006 340° North 450 518 33,000  Level Atlanta Center
03:29PM 32.0039 -82.6525 339° North 450 518 33,000  Level Atlanta Center
03:30PM 32.1214 -82.7047 339° North 450 518 33,000  Level Atlanta Center
03:31PM 32.2389 -82.7569 339° North 450 518 33,000  Level Atlanta Center
03:32PM 32.3519 -82.8094 339° North 450 518 33,000  Level Atlanta Center
03:33PM 32.4672 -82.8597 340° North 450 518 33,000 480 Level Atlanta Center
03:34PM 32.5783 -82.9122 338° Northwest 438 504 34,000 480 Climbing Atlanta Center
03:35PM 32.6917 -82.9603 340° North 432 497 34,000  Level Atlanta Center
03:36PM 32.8006 -83.0133 338° Northwest 426 490 34,000  Level Atlanta Center
03:37PM 32.9117 -83.0614 340° North 420 483 34,000  Level Atlanta Center
03:38PM 33.0206 -83.1122 339° North 420 483 34,000  Level Atlanta Center
03:39PM 33.1483 -83.1681 340° North 425 489 34,000  Level Atlanta Center
03:40PM 33.2572 -83.2189 339° North 431 496 34,000  Level Atlanta Center
03:41PM 33.3722 -83.2678 340° North 431 496 34,000  Level Atlanta Center
03:42PM 33.4894 -83.3214 339° North 436 502 34,000  Level Atlanta Center
03:43PM 33.6025 -83.3753 338° Northwest 436 502 34,000  Level Atlanta Center
03:44PM 33.7175 -83.4294 339° North 436 502 34,000  Level Atlanta Center
03:45PM 33.8347 -83.4811 340° North 436 502 34,000  Level Atlanta Center
03:46PM 33.9497 -83.5356 339° North 436 502 34,000  Level Atlanta Center
03:47PM 34.0542 -83.5825 340° North 436 502 34,000  Level Atlanta Center
03:48PM 34.1714 -83.6372 339° North 436 502 34,000  Level Atlanta Center
03:49PM 34.2864 -83.6919 339° North 441 507 34,000  Level Atlanta Center
03:50PM 34.4011 -83.7442 339° North 436 502 34,000  Level Atlanta Center
03:51PM 34.5161 -83.8019 338° Northwest 436 502 34,000  Level Atlanta Center
03:52PM 34.6289 -83.8544 339° North 428 493 34,000  Level Atlanta Center
03:53PM 34.7500 -83.9125 339° North 428 493 34,000  Level Atlanta Center
03:54PM 34.8650 -83.9678 338° Northwest 434 499 34,000  Level Atlanta Center
03:55PM 34.9775 -84.0211 339° North 434 499 34,000  Level Atlanta Center
03:56PM 35.0922 -84.0769 338° Northwest 434 499 34,000  Level Atlanta Center
03:57PM 35.2069 -84.1303 339° North 434 499 34,000  Level Atlanta Center
03:58PM 35.3197 -84.1839 339° North 434 499 34,000  Level Atlanta Center
03:59PM 35.4322 -84.2400 338° Northwest 434 499 34,000  Level Atlanta Center
04:00PM 35.5447 -84.2939 339° North 434 499 34,000  Level Atlanta Center
04:01PM 35.6617 -84.3481 339° North 434 499 34,000  Level Atlanta Center
04:02PM 35.7761 -84.4047 338° Northwest 434 499 34,000  Level Atlanta Center
04:03PM 35.8908 -84.4592 339° North 434 499 34,000  Level Atlanta Center
04:05PM 36.0661 -84.5461 338° Northwest 442 509 34,000  Level Indianapolis Center
04:06PM 36.1789 -84.6017 338° Northwest 442 509 34,000  Level Indianapolis Center
04:07PM 36.3139 -84.6686 338° Northwest 438 504 34,000  Level Indianapolis Center
04:08PM 36.4267 -84.7247 338° Northwest 438 504 34,000  Level Indianapolis Center
04:09PM 36.5378 -84.7808 338° Northwest 434 499 34,000  Level Indianapolis Center
04:10PM 36.6500 -84.8361 338° Northwest 436 502 34,000  Level Indianapolis Center
04:11PM 36.7619 -84.8919 338° Northwest 434 499 34,000  Level Indianapolis Center
04:12PM 36.8744 -84.9494 338° Northwest 434 499 34,000  Level Indianapolis Center
04:13PM 37.0083 -85.0158 338° Northwest 430 495 34,000  Level Indianapolis Center
04:14PM 37.1158 -85.0703 338° Northwest 434 499 34,000  Level Indianapolis Center
04:15PM 37.2292 -85.1275 338° Northwest 437 503 34,000  Level Indianapolis Center
04:16PM 37.3433 -85.1856 338° Northwest 441 507 34,000  Level Indianapolis Center
04:17PM 37.4742 -85.2514 338° Northwest 434 499 34,000  Level Indianapolis Center
04:18PM 37.5867 -85.3103 337° Northwest 436 502 34,000  Level Indianapolis Center
04:19PM 37.6969 -85.3686 337° Northwest 430 495 34,000  Level Indianapolis Center
04:20PM 37.8092 -85.4250 338° Northwest 431 496 34,000  Level Indianapolis Center
04:21PM 37.9311 -85.4989 334° Northwest 440 506 34,000  Level Indianapolis Center
04:22PM 38.0314 -85.5800 328° Northwest 431 496 34,000  Level Indianapolis Center
04:23PM 38.1367 -85.6606 329° Northwest 438 504 34,000  Level Indianapolis Center
04:24PM 38.2411 -85.7411 329° Northwest 440 506 34,000  Level Indianapolis Center
04:25PM 38.3508 -85.8133 333° Northwest 444 511 34,000  Level Indianapolis Center
04:26PM 38.4664 -85.8772 337° Northwest 452 520 34,000  Level Indianapolis Center
04:27PM 38.5819 -85.9422 336° Northwest 453 521 34,000  Level Indianapolis Center
04:28PM 38.7206 -86.0194 337° Northwest 454 522 34,000  Level Indianapolis Center
04:29PM 38.8356 -86.0822 337° Northwest 450 518 34,000  Level Indianapolis Center
04:31PM 38.9553 -86.1497 336° Northwest 446 513 34,000  Level Indianapolis Center
04:32PM 39.0681 -86.2125 337° Northwest 441 507 34,000  Level Indianapolis Center
04:33PM 39.1819 -86.2772 336° Northwest 444 511 34,000  Level Indianapolis Center
04:34PM 39.2950 -86.3411 336° Northwest 442 509 34,000  Level Indianapolis Center
04:35PM 39.4089 -86.4053 336° Northwest 444 511 34,000  Level Indianapolis Center
04:36PM 39.5219 -86.4700 336° Northwest 443 510 34,000  Level Indianapolis Center
04:37PM 39.6353 -86.5367 336° Northwest 441 507 34,000  Level Indianapolis Center
04:38PM 39.7719 -86.6144 336° Northwest 440 506 34,000  Level Indianapolis Center
04:39PM 39.8867 -86.6792 337° Northwest 443 510 34,000  Level Indianapolis Center
04:40PM 39.9997 -86.7439 336° Northwest 443 510 34,000  Level Indianapolis Center
04:41PM 40.1161 -86.8053 338° Northwest 450 518 34,000  Level Indianapolis Center
04:41PM 40.1894 -86.8297 346° North 452 520 34,000  Level Chicago Center
04:42PM 40.3108 -86.8750 344° North 452 520 34,000  Level Chicago Center
04:43PM 40.4300 -86.9192 344° North 445 512 34,000  Level Chicago Center
04:45PM 40.5497 -86.9622 345° North 447 514 34,000  Level Chicago Center
04:46PM 40.6697 -87.0061 344° North 448 516 34,000 -480 Level Chicago Center
04:47PM 40.7975 -87.0533 344° North 452 520 33,000 -480 Descending Chicago Center
04:48PM 40.9444 -87.1075 344° North 460 529 33,000  Level Chicago Center
04:49PM 41.0661 -87.1517 345° North 460 529 33,000  Level Chicago Center
04:50PM 41.1931 -87.1664 355° North 463 533 33,000 -660 Level Chicago Center
04:51PM 41.3194 -87.1808 355° North 461 531 31,700 -2,280 Descending Chicago Center
04:52PM 41.4706 -87.2000 355° North 460 529 28,400 -2,700 Descending Chicago Center
04:53PM 41.5892 -87.2136 355° North 438 504 26,200 -2,100 Descending Chicago Center
04:54PM 41.7014 -87.2283 354° North 416 479 24,100 -1,080 Descending Chicago Center
04:55PM 41.8117 -87.2406 355° North 405 466 24,000 -780 Descending Chicago Center
04:56PM 41.9222 -87.2558 354° North 404 465 22,500 -2,040 Descending Chicago Center
04:57PM 42.0483 -87.2703 355° North 390 449 19,900 -1,800 Descending Chicago Center
04:58PM 42.1478 -87.2811 355° North 369 425 18,900 -1,020 Descending Chicago Center
04:59PM 42.2467 -87.2925 355° North 362 417 17,800 -1,020 Descending Chicago Center
05:00PM 42.3431 -87.3056 354° North 355 409 16,800 -960 Descending Chicago Center
05:01PM 42.4414 -87.2942 North 363 418 15,900 -1,500 Descending Chicago Center
05:02PM 42.5492 -87.2942 360° North 334 384 13,700 -2,460 Descending Chicago Center
05:03PM 42.6206 -87.3617 325° Northwest 313 360 10,900 -1,860 Descending Chicago Center
05:04PM 42.6919 -87.4308 325° Northwest 308 354 9,900 -480 Descending Chicago Center
05:05PM 42.7653 -87.4789 334° Northwest 293 337 10,000 -180 Climbing Chicago Center
05:06PM 42.8417 -87.5264 335° Northwest 300 345 9,600 -1,500 Descending Chicago Center
05:07PM 42.9161 -87.5742 335° Northwest 297 342 7,000 -2,700 Descending Chicago Center
05:08PM 42.9811 -87.6450 321° Northwest 279 321 4,100 -2,040 Descending Chicago Center
05:09PM 42.9844 -87.7272 273° West 231 266 2,800 -900 Descending Chicago Center
05:10PM 42.9714 -87.7806 252° West 174 200 2,300 -600 Descending Chicago Center
05:11PM 42.9594 -87.8294 252° West 150 173 1,600 -540 Descending Chicago Center
05:12PM 42.9483 -87.8775 252° West 140 161 1,200 -420 Descending Chicago Center
05:15PM 42.9333 -87.8833 260° West  Level FlightAware Approximate